Time;durP1;ratioP1;P1;durP2;ratioP2;P2;SDS_P1;SDS_P2;PMS_P1;PMS_P2;Temp;Humidity;BMP_temperature;BMP_pressure;BME280_temperature;BME280_humidity;BME280_pressure;Samples;Min_cycle;Max_cycle;Signal;HPM_P1;HPM_P2
2021/11/12 00:04:06;;;;;;;1.02;0.50;;;18.40;70.50;;;;;;4984160;28;96238;-61
2021/11/12 00:14:54;;;;;;;2.90;0.50;;;18.50;70.20;;;;;;4982245;28;96477;-59
2021/11/12 00:17:32;;;;;;;2.08;0.80;;;18.50;70.40;;;;;;4980356;28;95883;-56
2021/11/12 00:20:04;;;;;;;0.93;0.40;;;18.50;70.50;;;;;;4980577;28;96083;-57
2021/11/12 00:22:39;;;;;;;0.82;0.60;;;18.60;70.60;;;;;;4981343;28;95897;-58
2021/11/12 00:25:10;;;;;;;0.93;0.63;;;18.70;70.50;;;;;;4977123;28;97591;-54
2021/11/12 00:27:44;;;;;;;0.85;0.47;;;18.80;70.60;;;;;;4981039;28;95967;-56
2021/11/12 00:33:26;;;;;;;0.93;0.70;;;18.80;70.50;;;;;;4980384;28;95841;-58
2021/11/12 00:36:15;;;;;;;0.73;0.57;;;18.90;68.30;;;;;;4981917;28;95608;-50
2021/11/12 00:39:08;;;;;;;0.50;0.50;;;19.00;68.40;;;;;;4967004;28;95987;-60
2021/11/12 00:41:45;;;;;;;0.50;0.45;;;18.90;70.30;;;;;;4970840;28;96426;-58
2021/11/12 00:44:29;;;;;;;0.63;0.40;;;19.00;70.60;;;;;;4980123;28;95910;-61
2021/11/12 00:47:03;;;;;;;1.05;0.65;;;19.00;70.40;;;;;;4982818;28;95343;-57
2021/11/12 00:49:40;;;;;;;1.55;0.57;;;19.10;70.50;;;;;;4982801;28;96175;-59
2021/11/12 00:52:27;;;;;;;1.52;0.63;;;19.10;70.30;;;;;;4980886;28;97654;-63
2021/11/12 00:54:57;;;;;;;1.00;0.60;;;19.20;70.30;;;;;;4983045;28;97192;-57
2021/11/12 00:57:26;;;;;;;0.60;0.60;;;19.20;70.30;;;;;;4978600;28;95796;-61
2021/11/12 00:59:59;;;;;;;0.70;0.60;;;19.20;70.30;;;;;;4976445;28;96421;-60
2021/11/12 01:02:30;;;;;;;1.48;0.60;;;19.30;70.40;;;;;;4980617;28;97144;-61
2021/11/12 01:05:00;;;;;;;1.38;0.60;;;19.30;70.40;;;;;;4980008;28;96025;-64
2021/11/12 01:07:31;;;;;;;1.35;0.70;;;19.40;70.30;;;;;;4978290;28;97667;-58
2021/11/12 01:10:04;;;;;;;1.02;0.70;;;19.40;70.30;;;;;;4978527;28;95860;-55
2021/11/12 01:12:38;;;;;;;2.78;0.75;;;19.40;70.40;;;;;;4980096;28;96412;-60
2021/11/12 01:15:12;;;;;;;2.33;0.73;;;19.40;70.30;;;;;;4974362;28;96180;-56
2021/11/12 01:17:46;;;;;;;0.93;0.77;;;19.50;70.30;;;;;;4980179;28;95773;-56
2021/11/12 01:20:19;;;;;;;1.38;0.70;;;19.50;70.10;;;;;;4980354;28;95875;-58
2021/11/12 01:22:50;;;;;;;1.38;0.65;;;19.40;69.90;;;;;;4979469;28;97290;-56
2021/11/12 01:25:22;;;;;;;1.33;0.95;;;19.40;69.80;;;;;;4981570;28;97158;-56
2021/11/12 01:27:54;;;;;;;1.17;0.80;;;19.40;69.80;;;;;;4980615;28;95755;-57
2021/11/12 01:30:24;;;;;;;;;;;19.30;69.80;;;;;;4977840;28;95934;-55
2021/11/12 01:32:56;;;;;;;0.73;0.73;;;19.30;69.70;;;;;;4977320;28;96440;-57
2021/11/12 01:35:26;;;;;;;1.40;0.63;;;19.30;69.70;;;;;;4980430;28;95889;-56
2021/11/12 01:37:59;;;;;;;2.25;0.95;;;19.30;69.90;;;;;;4970440;28;95873;-60
2021/11/12 01:40:30;;;;;;;2.15;0.93;;;19.30;68.90;;;;;;4977330;28;95971;-58
2021/11/12 01:43:16;;;;;;;3.13;1.00;;;19.30;69.40;;;;;;4993116;28;96550;-58
2021/11/12 01:59:23;;;;;;;0.70;0.70;;;20.00;69.10;;;;;;4978361;28;95907;-53
2021/11/12 02:02:00;;;;;;;1.02;0.80;;;20.10;68.70;;;;;;4979554;28;95971;-58
2021/11/12 02:04:31;;;;;;;0.95;0.90;;;20.20;68.80;;;;;;4980702;28;96752;-58
2021/11/12 02:07:01;;;;;;;1.35;1.20;;;20.30;68.70;;;;;;4977823;28;95886;-64
2021/11/12 02:09:32;;;;;;;2.25;1.30;;;20.40;68.50;;;;;;4983768;28;96023;-64
2021/11/12 02:12:19;;;;;;;2.15;1.50;;;20.50;68.30;;;;;;4983255;28;95391;-61
2021/11/12 02:14:52;;;;;;;2.55;1.50;;;20.60;68.10;;;;;;4980393;28;96233;-58
2021/11/12 02:17:33;;;;;;;1.98;1.58;;;20.70;67.90;;;;;;4981391;28;96541;-63
2021/11/12 02:20:12;;;;;;;;;;;20.70;67.80;;;;;;4981762;28;95742;-66
2021/11/12 02:22:45;;;;;;;3.20;2.15;;;20.80;67.80;;;;;;4978124;28;96140;-61
2021/11/12 02:25:26;;;;;;;3.80;2.00;;;20.90;67.70;;;;;;4982238;28;96117;-58
2021/11/12 02:28:02;;;;;;;2.80;2.33;;;21.00;67.40;;;;;;4997362;28;95782;-59
2021/11/12 02:30:35;;;;;;;2.67;2.22;;;21.10;67.40;;;;;;4984994;28;95975;-61
2021/11/12 02:33:33;;;;;;;2.42;2.20;;;21.10;67.10;;;;;;4982101;28;95897;-60
2021/11/12 02:36:14;;;;;;;3.05;2.55;;;21.30;66.90;;;;;;4981062;28;96045;-60
2021/11/12 02:38:48;;;;;;;2.42;2.00;;;21.30;66.70;;;;;;4962322;28;96152;-59
2021/11/12 02:41:23;;;;;;;2.53;2.33;;;21.40;66.70;;;;;;4979691;28;95709;-61
2021/11/12 02:43:55;;;;;;;3.15;2.75;;;21.40;66.50;;;;;;4998406;28;95933;-64
2021/11/12 02:46:27;;;;;;;3.15;2.70;;;21.50;66.40;;;;;;4984533;28;97132;-58
2021/11/12 02:48:59;;;;;;;14.48;12.48;;;21.50;66.20;;;;;;4984142;28;95900;-57
2021/11/12 02:51:32;;;;;;;12.75;10.23;;;21.30;64.20;;;;;;4983646;28;95690;-60
2021/11/12 02:54:06;;;;;;;15.57;12.82;;;21.00;64.90;;;;;;4981436;28;95994;-57
2021/11/12 02:56:39;;;;;;;18.30;15.77;;;20.90;65.20;;;;;;4978304;28;96885;-59
2021/11/12 02:59:11;;;;;;;19.80;15.48;;;20.80;65.20;;;;;;4976161;28;98716;-61
2021/11/12 03:01:45;;;;;;;22.27;17.20;;;20.80;65.40;;;;;;4982035;28;96320;-60
2021/11/12 03:04:19;;;;;;;25.25;18.73;;;20.80;65.50;;;;;;4981655;28;95662;-59
2021/11/12 03:06:51;;;;;;;20.30;16.90;;;20.80;65.50;;;;;;4981485;28;96025;-58
2021/11/12 03:09:25;;;;;;;26.02;19.65;;;20.70;65.50;;;;;;4980888;28;96413;-59
2021/11/12 03:11:57;;;;;;;22.73;17.92;;;20.70;65.50;;;;;;4980102;28;97145;-59
2021/11/12 03:14:29;;;;;;;23.80;18.17;;;20.70;65.50;;;;;;4976244;28;96091;-60
2021/11/12 03:17:00;;;;;;;23.65;18.83;;;20.70;65.50;;;;;;4980024;28;96978;-60
2021/11/12 03:19:31;;;;;;;19.80;17.00;;;20.70;65.70;;;;;;4996533;28;96586;-58
2021/11/12 03:22:07;;;;;;;22.67;18.42;;;20.70;65.90;;;;;;4981353;28;95673;-58
2021/11/12 03:24:47;;;;;;;21.02;16.45;;;20.70;65.90;;;;;;4983286;28;96714;-61
2021/11/12 04:04:19;;;;;;;14.38;11.88;;;20.30;67.20;;;;;;4977514;28;96535;-57
2021/11/12 05:44:38;;;;;;;4.40;2.90;;;20.40;68.20;;;;;;4980077;28;96586;-62
2021/11/12 06:03:23;;;;;;;4.97;3.00;;;20.00;68.40;;;;;;4986826;27;97042;-62
2021/11/12 06:05:55;;;;;;;4.47;3.08;;;19.90;69.30;;;;;;4986712;28;96056;-61
2021/11/12 06:08:26;;;;;;;4.03;3.20;;;19.90;67.80;;;;;;4989126;28;95891;-66
2021/11/12 06:10:57;;;;;;;7.50;3.90;;;19.90;69.80;;;;;;4967861;28;97495;-64
2021/11/12 06:13:29;;;;;;;4.95;3.80;;;20.00;69.70;;;;;;5000511;28;96572;-63
2021/11/12 06:16:00;;;;;;;4.32;3.47;;;20.10;69.70;;;;;;5017807;27;95328;-69
2021/11/12 06:18:31;;;;;;;4.65;3.58;;;20.10;69.70;;;;;;4996992;28;96511;-66
2021/11/12 06:21:02;;;;;;;4.57;3.60;;;20.20;69.60;;;;;;4999251;28;97587;-59
2021/11/12 06:23:32;;;;;;;5.60;3.87;;;20.20;69.30;;;;;;4999703;28;95792;-60
2021/11/12 06:26:02;;;;;;;5.60;3.60;;;20.20;69.20;;;;;;4998881;28;98396;-57
2021/11/12 06:28:32;;;;;;;4.70;3.88;;;20.20;69.10;;;;;;4999128;28;96096;-62
2021/11/12 06:31:04;;;;;;;4.65;3.58;;;20.20;69.10;;;;;;4997565;28;96818;-63
2021/11/12 06:33:36;;;;;;;4.65;3.63;;;20.20;69.10;;;;;;4996253;28;96289;-63
2021/11/12 06:36:09;;;;;;;3.72;2.85;;;20.20;69.00;;;;;;4998388;28;96058;-62
2021/11/12 06:38:41;;;;;;;6.88;3.80;;;20.20;69.20;;;;;;4997392;28;96070;-60
2021/11/12 06:41:15;;;;;;;4.50;3.45;;;20.20;69.40;;;;;;4997959;28;95871;-60
2021/11/12 06:44:20;;;;;;;4.28;3.10;;;20.20;69.00;;;;;;4998248;28;98623;-62
2021/11/12 06:52:26;;;;;;;4.53;2.83;;;20.20;68.90;;;;;;4998399;28;96594;-61
2021/11/12 06:55:01;;;;;;;3.17;2.70;;;20.20;68.90;;;;;;4998618;28;95749;-64
2021/11/12 06:57:32;;;;;;;4.78;2.95;;;20.20;68.90;;;;;;4999545;28;95267;-62
2021/11/12 07:00:11;;;;;;;3.22;2.80;;;20.20;68.90;;;;;;4999029;28;95805;-62
2021/11/12 07:02:43;;;;;;;4.43;2.70;;;20.20;68.80;;;;;;4996948;28;96729;-60
2021/11/12 07:05:17;;;;;;;3.25;2.47;;;20.30;68.80;;;;;;4992240;28;98851;-60
2021/11/12 07:07:48;;;;;;;3.60;2.65;;;20.20;68.90;;;;;;4986790;28;95950;-61
2021/11/12 07:10:19;;;;;;;3.60;2.38;;;20.10;68.80;;;;;;4996999;28;95466;-61
2021/11/12 07:12:51;;;;;;;3.03;2.10;;;20.20;68.80;;;;;;4993333;28;96762;-60
2021/11/12 07:15:22;;;;;;;2.92;2.50;;;20.20;68.70;;;;;;4983286;28;95799;-61
2021/11/12 07:17:53;;;;;;;4.05;2.25;;;20.20;68.60;;;;;;4984277;28;95681;-59
2021/11/12 07:20:25;;;;;;;3.95;2.33;;;20.20;68.70;;;;;;4985668;28;96031;-59
2021/11/12 07:22:55;;;;;;;3.03;2.17;;;20.10;68.50;;;;;;4983547;28;96451;-59
2021/11/12 07:25:25;;;;;;;2.20;2.00;;;20.10;68.60;;;;;;4983516;28;96540;-59
2021/11/12 07:27:56;;;;;;;4.13;2.70;;;20.00;68.70;;;;;;4983510;28;95834;-59
2021/11/12 07:30:26;;;;;;;;;;;20.00;68.70;;;;;;4984111;28;95570;-58
2021/11/12 07:32:58;;;;;;;3.03;2.40;;;19.90;68.70;;;;;;4984286;28;96460;-60
2021/11/12 07:35:34;;;;;;;4.28;2.17;;;19.90;68.80;;;;;;4982904;28;96325;-60
2021/11/12 07:38:14;;;;;;;3.05;2.20;;;19.80;68.80;;;;;;4987391;28;95815;-60
2021/11/12 07:46:22;;;;;;;3.63;2.78;;;19.70;68.90;;;;;;4985842;28;96286;-61
2021/11/12 07:48:53;;;;;;;4.18;2.50;;;19.70;69.00;;;;;;4986647;28;95798;-60
2021/11/12 07:51:23;;;;;;;4.90;2.87;;;19.60;69.00;;;;;;4987765;28;95635;-60
2021/11/12 07:53:54;;;;;;;4.22;2.60;;;19.60;69.20;;;;;;4986747;28;95859;-61
2021/11/12 07:56:28;;;;;;;4.65;2.72;;;19.50;69.20;;;;;;4984952;28;96460;-60
2021/11/12 07:58:59;;;;;;;3.88;2.75;;;19.50;69.30;;;;;;4984741;28;95892;-60
2021/11/12 08:01:29;;;;;;;3.92;2.60;;;19.40;69.20;;;;;;4985783;28;95570;-60
2021/11/12 08:04:03;;;;;;;4.10;2.72;;;19.40;69.30;;;;;;4985678;28;96017;-60
2021/11/12 08:06:35;;;;;;;3.90;2.60;;;19.40;69.40;;;;;;4973169;28;95928;-58
2021/11/12 08:09:12;;;;;;;2.40;2.20;;;19.30;69.40;;;;;;4983009;28;96195;-59
2021/11/12 08:11:47;;;;;;;4.60;3.05;;;19.30;69.40;;;;;;4986011;28;96177;-59
2021/11/12 08:14:28;;;;;;;3.30;2.30;;;19.30;69.60;;;;;;4984695;28;96507;-60
2021/11/12 08:19:41;;;;;;;2.80;2.20;;;19.20;69.60;;;;;;4987121;28;95924;-58
2021/11/12 08:22:20;;;;;;;3.33;2.55;;;19.20;69.70;;;;;;4984882;28;95755;-59
2021/11/12 08:43:15;;;;;;;2.73;1.97;;;18.80;70.00;;;;;;4987157;28;95620;-65
2021/11/12 08:46:42;;;;;;;4.00;2.65;;;18.80;70.10;;;;;;4985310;28;95719;-69
2021/11/12 08:48:43;;;;;;;4.55;3.15;;;18.80;70.20;;;;;;4980973;28;95788;-59
2021/11/12 08:51:14;;;;;;;5.15;3.60;;;18.80;70.20;;;;;;4987398;28;95952;-66
2021/11/12 08:53:47;;;;;;;5.78;3.50;;;18.80;70.30;;;;;;4984929;28;95871;-58
2021/11/12 08:56:22;;;;;;;4.00;3.42;;;18.80;70.40;;;;;;4983765;28;96536;-59
2021/11/12 08:58:53;;;;;;;5.40;3.20;;;18.80;71.10;;;;;;4984443;28;96316;-59
2021/11/12 09:01:25;;;;;;;7.10;3.88;;;18.80;70.40;;;;;;4984666;28;95962;-58
2021/11/12 09:03:57;;;;;;;5.10;3.15;;;18.80;70.30;;;;;;4983164;28;95302;-62
2021/11/12 09:06:28;;;;;;;;;;;18.80;70.30;;;;;;4971134;28;97491;-60
2021/11/12 09:08:59;;;;;;;4.27;3.10;;;18.80;70.10;;;;;;4979406;28;95907;-60
2021/11/12 09:11:30;;;;;;;2.92;2.35;;;18.80;70.20;;;;;;4972761;28;96585;-60
2021/11/12 09:14:04;;;;;;;3.45;2.75;;;18.80;70.10;;;;;;4982566;28;95625;-60
2021/11/12 09:16:36;;;;;;;3.90;2.75;;;18.80;70.20;;;;;;4979323;28;95811;-60
2021/11/12 09:19:08;;;;;;;5.20;3.22;;;18.80;70.10;;;;;;4984777;28;95676;-59
2021/11/12 09:21:48;;;;;;;3.70;2.47;;;18.80;70.10;;;;;;4982388;28;95744;-60
2021/11/12 09:24:19;;;;;;;3.20;2.42;;;18.80;70.20;;;;;;4985807;28;95404;-58
2021/11/12 09:26:49;;;;;;;2.90;2.60;;;18.80;70.10;;;;;;4985075;28;96206;-67
2021/11/12 09:29:19;;;;;;;3.38;2.47;;;18.70;70.00;;;;;;5020067;27;96069;-58
2021/11/12 09:31:50;;;;;;;2.88;2.60;;;18.70;70.10;;;;;;4989344;28;96487;-62
2021/11/12 09:34:23;;;;;;;4.38;2.45;;;18.70;70.70;;;;;;4987920;28;95167;-59
2021/11/12 09:36:53;;;;;;;3.20;2.58;;;18.70;70.30;;;;;;4987312;28;98033;-58
2021/11/12 09:39:23;;;;;;;3.72;2.95;;;18.60;70.10;;;;;;4989303;28;96094;-58
2021/11/12 09:41:53;;;;;;;2.63;2.30;;;18.60;70.30;;;;;;4992362;28;95833;-58
2021/11/12 09:44:23;;;;;;;3.20;2.08;;;18.60;70.30;;;;;;4988523;28;96037;-67
2021/11/12 09:46:55;;;;;;;3.20;2.40;;;18.60;70.30;;;;;;4991931;28;95681;-69
2021/11/12 09:49:28;;;;;;;3.47;2.38;;;18.60;70.50;;;;;;4977690;28;95463;-59
2021/11/12 09:52:01;;;;;;;2.83;2.22;;;18.50;70.40;;;;;;4990016;28;95770;-70
2021/11/12 09:54:32;;;;;;;2.63;2.17;;;18.50;70.40;;;;;;4963872;28;95285;-69
2021/11/12 09:57:03;;;;;;;2.30;2.10;;;18.50;70.50;;;;;;4989096;28;96061;-67
2021/11/12 09:59:35;;;;;;;2.75;2.33;;;18.40;70.40;;;;;;4987076;28;96027;-68
2021/11/12 10:02:07;;;;;;;2.50;2.15;;;18.40;70.50;;;;;;4986653;28;95933;-68
2021/11/12 10:04:39;;;;;;;2.20;2.00;;;18.40;71.20;;;;;;4987203;28;95816;-69
2021/11/12 10:07:13;;;;;;;3.10;2.67;;;18.40;70.60;;;;;;4974058;28;99873;-70
2021/11/12 10:09:48;;;;;;;1.83;1.52;;;18.40;70.70;;;;;;4989547;28;96518;-69
2021/11/12 10:12:19;;;;;;;3.95;1.92;;;18.40;68.60;;;;;;5001690;28;97838;-69
2021/11/12 10:14:52;;;;;;;4.55;2.28;;;18.30;70.60;;;;;;4990039;28;97307;-67
2021/11/12 10:17:23;;;;;;;2.15;1.80;;;18.30;70.70;;;;;;4987297;28;96610;-68
2021/11/12 10:19:56;;;;;;;2.33;1.50;;;18.30;70.60;;;;;;4987610;28;97070;-67
2021/11/12 10:22:38;;;;;;;1.58;1.35;;;18.30;70.70;;;;;;4988415;28;95824;-69
2021/11/12 10:25:10;;;;;;;2.60;2.10;;;18.30;70.70;;;;;;4988157;28;95555;-66
2021/11/12 10:27:50;;;;;;;1.67;1.58;;;18.20;70.80;;;;;;4988552;28;95980;-69
2021/11/12 10:30:28;;;;;;;1.85;1.65;;;18.20;70.80;;;;;;4987402;28;95772;-69
2021/11/12 10:32:59;;;;;;;3.03;1.85;;;18.20;70.80;;;;;;4988651;28;95350;-69
2021/11/12 10:35:31;;;;;;;2.38;1.55;;;18.20;70.80;;;;;;5019503;27;95879;-69
2021/11/12 10:38:36;;;;;;;2.22;1.73;;;18.20;70.80;;;;;;4988914;28;95874;-69
2021/11/12 10:41:24;;;;;;;2.08;1.85;;;18.20;70.90;;;;;;4985096;28;95598;-69
2021/11/12 10:43:55;;;;;;;2.25;1.38;;;18.20;70.90;;;;;;4985474;28;95795;-70
2021/11/12 10:46:47;;;;;;;2.33;2.00;;;18.10;70.90;;;;;;4990701;28;95858;-70
2021/11/12 10:49:26;;;;;;;2.70;1.42;;;18.10;70.90;;;;;;5005949;28;96811;-72
2021/11/12 10:52:04;;;;;;;1.73;1.48;;;18.10;70.90;;;;;;4992865;28;95850;-70
2021/11/12 10:54:44;;;;;;;1.40;1.30;;;18.10;70.90;;;;;;4991737;28;97430;-70
2021/11/12 10:57:19;;;;;;;2.38;1.63;;;18.10;71.00;;;;;;4994229;28;95252;-70
2021/11/12 11:00:07;;;;;;;1.73;1.58;;;18.10;71.00;;;;;;4992797;28;96085;-69
2021/11/12 11:03:00;;;;;;;1.92;1.58;;;18.00;71.00;;;;;;4993324;28;95674;-70
2021/11/12 11:05:34;;;;;;;2.75;1.60;;;18.00;71.00;;;;;;4989993;28;95698;-67
2021/11/12 11:08:15;;;;;;;1.92;1.75;;;18.00;71.00;;;;;;4984350;28;95442;-58
2021/11/12 11:10:59;;;;;;;1.80;1.30;;;18.00;71.10;;;;;;4992286;28;96506;-69
2021/11/12 11:13:33;;;;;;;2.33;1.45;;;18.00;71.10;;;;;;4988854;28;95485;-67
2021/11/12 11:16:06;;;;;;;1.80;1.40;;;18.00;71.30;;;;;;4994213;28;95598;-69
2021/11/12 11:18:40;;;;;;;1.52;1.30;;;17.90;71.10;;;;;;4994723;28;95719;-68
2021/11/12 11:21:24;;;;;;;2.70;1.00;;;17.90;71.10;;;;;;4992544;28;95939;-69
2021/11/12 11:23:55;;;;;;;2.17;1.40;;;17.90;71.10;;;;;;4989526;28;95787;-59
2021/11/12 11:26:26;;;;;;;2.42;1.65;;;17.90;71.10;;;;;;4991821;28;95624;-68
2021/11/12 11:28:58;;;;;;;;;;;17.90;71.20;;;;;;4973847;28;95757;-69
2021/11/12 11:31:30;;;;;;;1.38;1.27;;;17.90;71.20;;;;;;4992364;28;95782;-67
2021/11/12 11:34:00;;;;;;;;;;;17.80;71.20;;;;;;4992254;28;95769;-67
2021/11/12 11:36:34;;;;;;;2.03;1.35;;;17.80;71.20;;;;;;4994168;28;95685;-59
2021/11/12 11:39:10;;;;;;;1.35;1.25;;;17.80;71.20;;;;;;4991051;28;95871;-69
2021/11/12 11:41:44;;;;;;;2.40;1.42;;;17.80;71.20;;;;;;4989011;28;95768;-68
2021/11/12 11:44:15;;;;;;;2.25;1.20;;;17.80;71.20;;;;;;4988063;28;95637;-57
2021/11/12 11:46:49;;;;;;;2.00;1.48;;;17.80;71.30;;;;;;5004418;28;95308;-60
2021/11/12 11:49:26;;;;;;;2.92;1.45;;;17.80;71.30;;;;;;4990899;28;95198;-59
2021/11/12 11:52:01;;;;;;;1.60;1.00;;;17.70;71.30;;;;;;5022525;27;96410;-58
2021/11/12 11:54:44;;;;;;;1.92;1.13;;;17.70;71.20;;;;;;4988401;28;96050;-59
2021/11/12 11:57:20;;;;;;;1.30;1.02;;;17.70;71.30;;;;;;4989523;28;96014;-59
2021/11/12 12:00:25;;;;;;;2.13;1.35;;;17.70;71.30;;;;;;4991251;28;98177;-67
2021/11/12 12:03:24;;;;;;;1.20;1.10;;;17.70;71.30;;;;;;4985159;28;96029;-60
2021/11/12 12:06:06;;;;;;;1.70;0.85;;;17.70;71.30;;;;;;4981111;28;95827;-68
2021/11/12 12:09:05;;;;;;;;;;;17.70;71.40;;;;;;5009698;27;95926;-60
2021/11/12 12:11:40;;;;;;;1.20;0.90;;;17.70;71.40;;;;;;4989951;28;95865;-61
2021/11/12 12:14:33;;;;;;;1.63;1.42;;;17.60;71.40;;;;;;4986764;28;98194;-60
2021/11/12 12:17:34;;;;;;;2.15;1.33;;;17.60;71.30;;;;;;4995139;28;95712;-60
2021/11/12 13:21:46;;;;;;;2.38;1.27;;;17.80;72.10;;;;;;4956926;28;95360;-44
2021/11/12 13:24:45;;;;;;;2.28;1.15;;;17.80;71.90;;;;;;4962815;28;95329;-44
2021/11/12 13:27:16;;;;;;;2.00;1.30;;;17.80;71.70;;;;;;4965205;28;96053;-43
2021/11/12 13:29:50;;;;;;;1.60;1.23;;;17.80;71.60;;;;;;4962409;28;96680;-43
2021/11/12 13:32:25;;;;;;;1.73;1.30;;;17.80;71.20;;;;;;4951443;28;95954;-43
2021/11/12 13:35:04;;;;;;;2.08;1.20;;;17.70;71.50;;;;;;4965877;28;95841;-43
2021/11/12 13:37:37;;;;;;;2.85;1.00;;;17.80;71.50;;;;;;4961902;28;96033;-44
2021/11/12 13:40:22;;;;;;;1.65;1.13;;;17.70;71.30;;;;;;4914121;28;96226;-44
2021/11/12 13:42:57;;;;;;;1.65;0.90;;;17.70;71.30;;;;;;4917336;28;96162;-45
2021/11/12 13:45:30;;;;;;;1.42;1.10;;;17.70;69.50;;;;;;4925577;28;96762;-45
2021/11/12 13:48:13;;;;;;;1.00;0.90;;;17.70;71.60;;;;;;4921240;28;96480;-41
2021/11/12 13:51:02;;;;;;;1.02;0.93;;;17.80;71.80;;;;;;4914757;28;95824;-41
2021/11/12 13:53:36;;;;;;;1.70;0.88;;;17.80;71.80;;;;;;4917927;28;96424;-40
2021/11/12 13:56:12;;;;;;;2.30;1.15;;;17.80;71.80;;;;;;4921647;28;95965;-38
2021/11/12 13:58:46;;;;;;;1.73;1.08;;;17.80;71.80;;;;;;4895295;28;96041;-38
2021/11/12 14:01:24;;;;;;;1.08;0.75;;;17.80;71.90;;;;;;4898273;28;96011;-36
2021/11/12 14:03:57;;;;;;;1.40;1.00;;;17.80;72.00;;;;;;4904891;28;96106;-35
2021/11/12 14:06:54;;;;;;;3.10;1.23;;;17.70;72.00;;;;;;4892276;28;96262;-35
2021/11/12 14:09:38;;;;;;;1.73;1.23;;;17.80;72.40;;;;;;4901089;28;99458;-34
2021/11/12 14:12:13;;;;;;;1.50;0.98;;;17.80;72.50;;;;;;4930525;28;95920;-44
2021/11/12 14:14:45;;;;;;;1.83;0.90;;;18.00;72.40;;;;;;4934736;28;95889;-41
2021/11/12 14:17:23;;;;;;;;;;;18.00;72.30;;;;;;4944843;28;95853;-40
2021/11/12 14:20:17;;;;;;;1.20;0.98;;;18.10;72.20;;;;;;4950321;28;96454;-37
2021/11/12 14:22:57;;;;;;;1.40;0.80;;;18.20;72.10;;;;;;4944931;28;95733;-39
2021/11/12 14:28:13;;;;;;;1.38;0.70;;;18.40;72.10;;;;;;4947775;28;95681;-38
2021/11/12 14:31:05;;;;;;;1.50;1.08;;;18.40;71.90;;;;;;4953441;28;95898;-42
2021/11/12 14:39:16;;;;;;;1.70;0.80;;;18.60;71.60;;;;;;4948491;28;95259;-41
2021/11/12 14:42:17;;;;;;;1.00;0.90;;;18.70;69.90;;;;;;4947237;28;96516;-40
2021/11/12 14:53:29;;;;;;;1.50;0.90;;;18.30;70.70;;;;;;4945520;28;96746;-38
2021/11/12 14:56:16;;;;;;;1.65;1.05;;;18.20;70.80;;;;;;4948257;28;95786;-41
2021/11/12 14:59:01;;;;;;;1.52;1.00;;;18.20;70.80;;;;;;4947667;28;96133;-45
2021/11/12 15:01:37;;;;;;;0.65;0.65;;;18.10;70.90;;;;;;4947355;28;96197;-42
2021/11/12 15:04:09;;;;;;;1.00;0.90;;;18.00;70.80;;;;;;4951276;28;99574;-40
2021/11/12 15:06:40;;;;;;;;;;;18.00;70.80;;;;;;4935627;28;96222;-42
2021/11/12 15:12:16;;;;;;;0.88;0.70;;;17.90;70.90;;;;;;4945740;28;95870;-46
2021/11/12 15:14:54;;;;;;;1.38;0.90;;;17.80;70.90;;;;;;4947030;28;95926;-41
2021/11/12 15:17:25;;;;;;;1.98;1.00;;;17.80;70.90;;;;;;4945645;28;96141;-41
2021/11/12 15:19:59;;;;;;;3.67;1.67;;;17.80;70.90;;;;;;4930939;28;96081;-40
2021/11/12 15:25:34;;;;;;;4.45;2.88;;;17.80;71.70;;;;;;4943656;28;96457;-43
2021/11/12 15:30:53;;;;;;;5.13;2.92;;;17.90;71.70;;;;;;4945828;28;95707;-42
2021/11/12 15:33:25;;;;;;;3.35;2.95;;;17.90;71.80;;;;;;4945773;28;95749;-43
2021/11/12 15:35:57;;;;;;;5.18;2.63;;;17.90;71.80;;;;;;4929803;28;95906;-42
2021/11/12 15:41:06;;;;;;;4.10;2.50;;;17.80;71.80;;;;;;4942800;28;95967;-43
2021/11/12 15:43:58;;;;;;;3.50;2.53;;;17.90;69.90;;;;;;4947114;28;95832;-42
2021/11/12 15:46:32;;;;;;;3.03;2.42;;;17.90;72.00;;;;;;4944347;28;96078;-42
2021/11/12 15:49:05;;;;;;;4.22;2.88;;;17.80;71.90;;;;;;4976643;28;95994;-39
2021/11/12 15:51:42;;;;;;;5.80;2.78;;;17.80;72.00;;;;;;4940209;28;95795;-40
2021/11/12 15:57:41;;;;;;;2.67;1.83;;;17.80;69.90;;;;;;4947717;28;96786;-39
2021/11/12 16:06:04;;;;;;;1.92;1.73;;;17.70;72.00;;;;;;4941663;28;95442;-41
2021/11/12 16:27:16;;;;;;;2.88;1.50;;;17.60;72.00;;;;;;4941047;28;95562;-40
2021/11/12 16:29:53;;;;;;;2.17;1.58;;;17.60;72.00;;;;;;4946046;28;96926;-43
2021/11/12 16:32:44;;;;;;;1.90;1.40;;;17.60;72.00;;;;;;4948116;28;95734;-40
2021/11/12 16:35:20;;;;;;;1.88;1.50;;;17.60;72.00;;;;;;4948023;28;95844;-42
2021/11/12 16:37:53;;;;;;;2.03;1.73;;;17.60;72.00;;;;;;4949791;28;95825;-40
2021/11/12 16:45:59;;;;;;;1.95;1.70;;;17.50;72.00;;;;;;4947778;28;95235;-41
2021/11/12 16:53:59;;;;;;;3.55;2.20;;;17.50;72.10;;;;;;4941473;28;95576;-45
2021/11/12 17:02:15;;;;;;;3.35;1.67;;;17.50;72.20;;;;;;4949339;28;96485;-46
2021/11/12 17:11:01;;;;;;;3.25;1.48;;;17.40;72.10;;;;;;4907986;28;96163;-43
2021/11/12 17:16:35;;;;;;;2.42;1.60;;;17.40;72.20;;;;;;4905374;28;96013;-44
2021/11/12 17:46:52;;;;;;;2.75;1.40;;;17.20;72.30;;;;;;4948667;28;95990;-43
2021/11/12 17:49:37;;;;;;;3.72;1.75;;;17.20;70.20;;;;;;4948354;28;95761;-40
2021/11/12 17:52:49;;;;;;;3.25;1.55;;;17.20;72.30;;;;;;4950293;28;95915;-40
2021/11/12 18:06:29;;;;;;;1.85;1.30;;;17.20;72.40;;;;;;4933458;28;95956;-42
2021/11/12 18:12:13;;;;;;;1.90;1.23;;;17.10;73.00;;;;;;4947898;28;95749;-39
2021/11/12 21:43:56;;;;;;;0.70;0.70;;;16.50;73.80;;;;;;4948501;28;96398;-40
2021/11/12 21:46:27;;;;;;;1.75;0.60;;;16.50;73.80;;;;;;4948574;28;95899;-35
2021/11/12 21:48:59;;;;;;;1.60;0.65;;;16.50;73.80;;;;;;4949908;28;95637;-43
2021/11/12 21:51:39;;;;;;;0.73;0.60;;;16.50;73.80;;;;;;4949824;28;95849;-37
2021/11/12 21:54:12;;;;;;;0.88;0.70;;;16.50;73.80;;;;;;4949333;28;95852;-39
2021/11/12 21:56:48;;;;;;;0.80;0.80;;;16.50;73.80;;;;;;4949707;28;96749;-37
2021/11/12 21:59:19;;;;;;;0.70;0.70;;;16.50;73.90;;;;;;4948991;28;95781;-37
2021/11/12 22:01:51;;;;;;;1.60;0.70;;;16.50;73.90;;;;;;4945532;28;96542;-39
2021/11/12 22:04:23;;;;;;;1.05;0.60;;;16.50;73.80;;;;;;4946833;28;95889;-37
2021/11/12 22:06:55;;;;;;;0.52;0.52;;;16.50;73.90;;;;;;4935818;28;96747;-41
2021/11/12 22:09:26;;;;;;;0.95;0.60;;;16.50;73.90;;;;;;4946280;28;95741;-38
2021/11/12 22:11:57;;;;;;;0.57;0.55;;;16.50;73.70;;;;;;4947604;28;95905;-39
2021/11/12 22:14:29;;;;;;;0.40;0.40;;;16.50;74.00;;;;;;4941751;28;96714;-38
2021/11/12 22:17:00;;;;;;;2.08;0.60;;;16.50;74.00;;;;;;4946415;28;96047;-40
2021/11/12 22:19:32;;;;;;;1.70;0.60;;;16.50;74.10;;;;;;4947536;28;95887;-40
2021/11/12 22:22:03;;;;;;;;;;;16.50;74.20;;;;;;4959346;28;96283;-39
2021/11/12 22:24:33;;;;;;;1.52;0.70;;;16.50;74.20;;;;;;4948880;28;96246;-38
2021/11/12 22:27:03;;;;;;;0.65;0.65;;;16.50;74.30;;;;;;4948433;28;96064;-40
2021/11/12 22:29:33;;;;;;;1.05;0.60;;;16.50;74.40;;;;;;4948685;28;95669;-40
2021/11/12 22:32:21;;;;;;;1.02;0.80;;;16.50;74.40;;;;;;4944096;28;96465;-41
2021/11/12 22:34:55;;;;;;;1.02;0.68;;;16.50;74.50;;;;;;4947795;28;95634;-37
2021/11/12 22:37:28;;;;;;;1.30;0.70;;;16.50;74.50;;;;;;4947262;28;95869;-40
2021/11/12 22:39:58;;;;;;;1.83;0.80;;;16.50;74.60;;;;;;4961019;28;96941;-38
2021/11/12 22:42:30;;;;;;;1.13;0.80;;;16.50;74.60;;;;;;4946232;28;95963;-42
2021/11/12 22:45:00;;;;;;;1.43;0.90;;;16.50;74.50;;;;;;4950194;28;95789;-38
2021/11/12 22:47:30;;;;;;;0.60;0.60;;;16.50;74.50;;;;;;4951079;28;95306;-39
2021/11/12 22:50:04;;;;;;;0.60;0.60;;;16.50;74.50;;;;;;4953326;28;96304;-37
2021/11/12 22:52:34;;;;;;;1.65;0.82;;;16.50;74.50;;;;;;4951987;28;95992;-39
2021/11/12 22:55:07;;;;;;;0.60;0.60;;;16.60;74.50;;;;;;4948650;28;97207;-42
2021/11/12 22:57:40;;;;;;;0.70;0.70;;;16.50;74.50;;;;;;4950221;28;95456;-39
2021/11/12 23:00:52;;;;;;;1.80;0.88;;;16.60;74.60;;;;;;4950486;28;95838;-39
2021/11/12 23:03:22;;;;;;;2.78;0.85;;;16.60;74.60;;;;;;4943513;28;96101;-41
2021/11/12 23:05:55;;;;;;;0.80;0.80;;;16.60;74.60;;;;;;4939788;28;95430;-36
2021/11/12 23:08:25;;;;;;;1.20;1.10;;;16.60;74.60;;;;;;4943713;28;95521;-39
2021/11/12 23:10:56;;;;;;;1.33;0.90;;;16.60;74.60;;;;;;4951088;28;98999;-37
2021/11/12 23:13:27;;;;;;;;;;;16.60;74.60;;;;;;4948728;28;95951;-39
2021/11/12 23:16:02;;;;;;;;;;;16.60;74.60;;;;;;4950150;28;95484;-39
2021/11/12 23:18:36;;;;;;;1.33;1.23;;;16.60;74.60;;;;;;4950600;28;95643;-41
2021/11/12 23:21:10;;;;;;;1.38;1.27;;;16.60;74.60;;;;;;4949977;28;95822;-39
2021/11/12 23:23:44;;;;;;;2.53;1.50;;;16.60;74.60;;;;;;4949213;28;95889;-40
2021/11/12 23:26:18;;;;;;;2.60;1.30;;;16.60;74.60;;;;;;4950984;28;95356;-38
2021/11/12 23:28:48;;;;;;;1.42;1.33;;;16.60;74.70;;;;;;4947873;28;95335;-39
2021/11/12 23:31:22;;;;;;;1.73;1.17;;;16.70;74.80;;;;;;4944865;28;97796;-39
2021/11/12 23:33:53;;;;;;;3.70;2.10;;;16.70;74.90;;;;;;4947875;28;96107;-39
2021/11/12 23:36:24;;;;;;;3.03;2.13;;;16.70;74.80;;;;;;4947350;28;96860;-38